Erdenemandal, Mongolia
Current Conditions -  °F | °C
As of 4:00 AM on Tuesday 23 Dec 2014 (Local Time) from ZMUB Reporting Station
Clear Clear  
Wind Chill: -10°   Ceiling: Unl
Heat Index:   Visibility: 6mi
Dew Point: -6°   Wind: 4mph
Humidity: 78%   Direction: NA
Pressure: 30.12"   Gusts: NA
Location:  48.53°N, 101.37°E
Report Text: ZMUB 222000Z VRB02MPS CAVOK M18/M21 Q1020 NOSIG RMK QFE657.4 82
Loading
Personal Weather Stations






























Interactive Weather Map New forecast layout! Learn more

10-Day Weather Forecast

Advertisements
Track Severe Weather on mobile